createdAt,value
2018-03-28T00:00:12.454Z,33.33
2018-03-28T00:02:39.465Z,33.38
2018-03-28T00:05:08.543Z,31.92
2018-03-28T00:07:35.573Z,32.60
2018-03-28T00:10:02.615Z,36.80
2018-03-28T00:12:29.654Z,31.30
2018-03-28T00:14:56.734Z,30.02
2018-03-28T00:17:23.737Z,35.05
2018-03-28T00:19:50.750Z,36.88
2018-03-28T00:22:18.706Z,37.72
2018-03-28T00:24:45.825Z,32.60
2018-03-28T00:27:12.853Z,33.15
2018-03-28T00:29:39.875Z,33.88
2018-03-28T00:32:07.653Z,37.00
2018-03-28T00:34:34.717Z,35.47
2018-03-28T00:37:01.729Z,31.65
2018-03-28T00:39:29.506Z,27.02
2018-03-28T00:41:56.517Z,27.30
2018-03-28T00:44:23.625Z,23.83
2018-03-28T00:46:52.318Z,26.20
2018-03-28T00:49:19.356Z,27.67
2018-03-28T00:51:46.382Z,31.00
2018-03-28T00:54:14.194Z,30.67
2018-03-28T00:56:41.201Z,38.78
2018-03-28T00:59:08.194Z,38.25
2018-03-28T01:01:35.265Z,41.00
2018-03-28T01:04:02.405Z,60.38
2018-03-28T01:06:29.469Z,37.33
2018-03-28T01:08:57.379Z,45.38
2018-03-28T01:11:24.390Z,58.50
2018-03-28T01:13:53.254Z,52.03
2018-03-28T01:16:21.045Z,38.78
2018-03-28T01:18:48.805Z,61.50
2018-03-28T01:21:15.884Z,46.03
2018-03-28T01:23:43.006Z,32.83
2018-03-28T01:26:10.808Z,40.25
2018-03-28T01:28:37.880Z,57.92
2018-03-28T01:31:04.925Z,41.58
2018-03-28T01:33:31.970Z,40.05
2018-03-28T01:35:59.017Z,50.65
2018-03-28T01:38:26.086Z,31.95
2018-03-28T01:40:53.138Z,39.28
2018-03-28T01:43:20.178Z,37.35
2018-03-28T01:45:47.178Z,40.90
2018-03-28T01:48:14.160Z,47.78
2018-03-28T01:50:41.229Z,39.15
2018-03-28T01:53:08.343Z,32.00
2018-03-28T01:55:35.367Z,36.55
2018-03-28T01:58:02.418Z,34.30
2018-03-28T02:00:30.152Z,37.22
2018-03-28T02:02:57.978Z,36.65
2018-03-28T02:05:24.981Z,35.17
2018-03-28T02:07:52.397Z,26.98
2018-03-28T02:10:19.446Z,35.72
2018-03-28T02:12:46.462Z,30.20
2018-03-28T02:15:13.497Z,28.87
2018-03-28T02:17:40.616Z,29.40
2018-03-28T02:20:07.683Z,31.42
2018-03-28T02:22:34.797Z,28.62
2018-03-28T02:25:02.678Z,30.17
2018-03-28T02:27:29.667Z,26.33
2018-03-28T02:29:56.706Z,27.23
2018-03-28T02:32:23.774Z,32.60
2018-03-28T02:34:50.797Z,28.15
2018-03-28T02:37:17.818Z,31.40
2018-03-28T02:39:44.900Z,27.25
2018-03-28T02:42:11.973Z,22.60
2018-03-28T02:44:39.099Z,29.67
2018-03-28T02:47:06.127Z,30.52
2018-03-28T02:49:33.176Z,25.88
2018-03-28T02:52:00.226Z,25.08
2018-03-28T02:54:27.316Z,22.85
2018-03-28T02:56:54.351Z,24.12
2018-03-28T02:59:21.358Z,22.02
2018-03-28T03:01:48.346Z,23.80
2018-03-28T03:04:15.490Z,21.77
2018-03-28T03:06:42.505Z,20.42
2018-03-28T03:09:09.574Z,23.62
2018-03-28T03:11:36.694Z,23.25
2018-03-28T03:14:03.837Z,22.33
2018-03-28T03:16:30.880Z,23.52
2018-03-28T03:18:57.871Z,22.13
2018-03-28T03:21:24.911Z,25.05
2018-03-28T03:23:52.022Z,21.60
2018-03-28T03:26:19.038Z,25.90
2018-03-28T03:28:46.055Z,24.80
2018-03-28T03:31:13.074Z,24.77
2018-03-28T03:33:40.133Z,23.10
2018-03-28T03:36:07.892Z,24.27
2018-03-28T03:38:34.893Z,23.38
2018-03-28T03:41:01.949Z,23.48
2018-03-28T03:43:29.789Z,24.00
2018-03-28T03:45:56.789Z,21.65
2018-03-28T03:48:23.799Z,24.20
2018-03-28T03:50:50.838Z,25.37
2018-03-28T03:53:21.533Z,22.75
2018-03-28T03:55:48.546Z,24.48
2018-03-28T03:58:15.614Z,23.92
2018-03-28T04:00:43.357Z,21.95
2018-03-28T04:03:11.202Z,22.13
2018-03-28T04:05:38.933Z,26.20
2018-03-28T04:08:05.938Z,22.83
2018-03-28T04:10:32.966Z,21.92
2018-03-28T04:12:59.989Z,28.40
2018-03-28T04:15:27.863Z,24.80
2018-03-28T04:17:55.761Z,24.15
2018-03-28T04:20:22.762Z,28.17
2018-03-28T04:22:50.557Z,26.37
2018-03-28T04:25:17.690Z,22.73
2018-03-28T04:27:44.727Z,27.67
2018-03-28T04:30:11.897Z,25.70
2018-03-28T04:32:39.002Z,25.10
2018-03-28T04:35:06.098Z,23.12
2018-03-28T04:37:33.916Z,25.98
2018-03-28T04:40:00.912Z,24.65
2018-03-28T04:43:05.131Z,24.08
2018-03-28T04:51:35.983Z,25.98
2018-03-28T05:01:38.480Z,25.15
2018-03-28T05:04:10.338Z,30.02
2018-03-28T05:06:38.209Z,27.90
2018-03-28T05:09:05.354Z,30.00
2018-03-28T05:11:32.461Z,27.08
2018-03-28T05:14:00.321Z,24.65
2018-03-28T05:16:27.338Z,27.08
2018-03-28T05:18:56.329Z,24.02
2018-03-28T05:21:25.305Z,27.10
2018-03-28T05:23:53.158Z,28.05
2018-03-28T05:26:22.048Z,28.23
2018-03-28T05:28:49.319Z,23.08
2018-03-28T05:31:16.395Z,27.33
2018-03-28T05:33:44.518Z,25.83
2018-03-28T05:36:11.724Z,21.35
2018-03-28T05:38:39.622Z,24.52
2018-03-28T05:41:09.682Z,22.10
2018-03-28T05:51:44.939Z,26.48
2018-03-28T05:57:14.539Z,25.17
2018-03-28T05:59:52.700Z,22.45
2018-03-28T06:02:22.107Z,24.65
2018-03-28T06:04:56.078Z,25.10
2018-03-28T06:07:36.775Z,24.02
2018-03-28T06:10:18.237Z,26.77
2018-03-28T06:12:58.853Z,26.55
2018-03-28T06:15:55.372Z,23.50
2018-03-28T06:18:30.007Z,25.12
2018-03-28T06:21:12.987Z,24.25
2018-03-28T06:23:46.841Z,27.02
2018-03-28T06:26:13.900Z,22.65
2018-03-28T06:28:41.114Z,21.33
2018-03-28T06:31:08.342Z,24.23
2018-03-28T06:33:35.399Z,21.35
2018-03-28T06:36:03.230Z,25.52
2018-03-28T06:38:30.438Z,26.62
2018-03-28T06:40:57.466Z,31.80
2018-03-28T06:43:24.518Z,22.48
2018-03-28T06:45:51.550Z,25.73
2018-03-28T06:48:19.310Z,24.73
2018-03-28T06:50:46.349Z,24.98
2018-03-28T06:53:14.362Z,29.02
2018-03-28T06:55:41.430Z,27.40
2018-03-28T06:58:08.457Z,23.12
2018-03-28T07:00:35.501Z,24.58
2018-03-28T07:03:04.329Z,28.50
2018-03-28T07:05:31.557Z,23.55
2018-03-28T07:07:58.615Z,21.98
2018-03-28T07:10:25.817Z,27.55
2018-03-28T07:12:52.981Z,26.10
2018-03-28T07:15:56.316Z,25.12
2018-03-28T07:18:25.107Z,28.98
2018-03-28T07:20:55.020Z,22.80
2018-03-28T07:23:22.687Z,23.60
2018-03-28T07:25:51.422Z,27.02
2018-03-28T07:31:17.708Z,22.70
2018-03-28T07:33:46.627Z,19.92
2018-03-28T07:36:13.767Z,28.73
2018-03-28T07:38:42.175Z,24.02
2018-03-28T07:41:10.592Z,24.90
2018-03-28T07:43:43.368Z,21.80
2018-03-28T07:46:10.422Z,31.93
2018-03-28T07:48:37.444Z,24.25
2018-03-28T07:51:04.641Z,23.70
2018-03-28T07:53:31.652Z,27.50
2018-03-28T07:55:58.662Z,25.37
2018-03-28T07:58:25.693Z,28.73
2018-03-28T08:00:52.716Z,21.90
2018-03-28T08:03:19.747Z,22.40
2018-03-28T08:05:46.790Z,33.80
2018-03-28T08:08:14.538Z,24.70
2018-03-28T08:10:41.552Z,22.83
2018-03-28T08:13:08.606Z,20.80
2018-03-28T08:15:35.627Z,22.43
2018-03-28T08:18:02.654Z,28.37
2018-03-28T08:20:29.705Z,25.63
2018-03-28T08:22:56.721Z,25.10
2018-03-28T08:25:23.743Z,23.30
2018-03-28T08:27:50.778Z,27.00
2018-03-28T08:30:17.822Z,22.43
2018-03-28T08:32:44.832Z,23.77
2018-03-28T08:35:11.865Z,24.40
2018-03-28T08:37:38.893Z,25.40
2018-03-28T08:40:06.693Z,34.73
2018-03-28T08:42:33.685Z,32.60
2018-03-28T08:45:00.719Z,28.97
2018-03-28T08:47:27.756Z,34.83
2018-03-28T08:49:54.806Z,29.47
2018-03-28T08:52:21.834Z,28.23
2018-03-28T08:54:48.862Z,28.90
2018-03-28T08:57:15.905Z,29.90
2018-03-28T08:59:42.909Z,31.00
2018-03-28T09:02:10.674Z,27.70
2018-03-28T09:04:37.729Z,23.80
2018-03-28T09:07:04.779Z,25.83
2018-03-28T09:09:31.786Z,26.47
2018-03-28T09:11:59.049Z,24.30
2018-03-28T09:14:26.162Z,26.80
2018-03-28T09:16:53.906Z,28.17
2018-03-28T09:19:20.964Z,32.73
2018-03-28T09:21:48.153Z,28.77
2018-03-28T09:24:15.978Z,26.27
2018-03-28T09:26:43.199Z,23.50
2018-03-28T09:29:10.238Z,28.63
2018-03-28T09:31:37.510Z,33.77
2018-03-28T09:34:05.465Z,30.37
2018-03-28T09:36:32.548Z,28.27
2018-03-28T09:39:00.478Z,24.70
2018-03-28T09:41:27.601Z,24.93
2018-03-28T09:43:54.921Z,27.97
2018-03-28T09:46:21.986Z,26.43
2018-03-28T09:48:48.980Z,29.20
2018-03-28T09:51:16.055Z,23.43
2018-03-28T09:53:43.811Z,24.07
2018-03-28T09:56:10.861Z,25.57
2018-03-28T09:58:37.969Z,25.40
2018-03-28T10:01:08.061Z,28.53
2018-03-28T10:03:41.024Z,26.60
2018-03-28T10:06:08.007Z,22.17
2018-03-28T10:08:35.020Z,23.87
2018-03-28T10:11:02.114Z,21.90
2018-03-28T10:13:29.120Z,22.47
2018-03-28T10:15:56.132Z,27.27
2018-03-28T10:18:23.154Z,24.90
2018-03-28T10:20:50.166Z,23.53
2018-03-28T10:23:17.942Z,20.50
2018-03-28T10:25:44.978Z,24.13
2018-03-28T10:28:12.711Z,24.00
2018-03-28T10:30:39.736Z,23.00
2018-03-28T10:33:07.090Z,24.40
2018-03-28T10:35:34.157Z,24.87
2018-03-28T10:38:01.153Z,22.00
2018-03-28T10:40:28.244Z,25.07
2018-03-28T10:42:55.234Z,23.17
2018-03-28T10:45:22.473Z,21.47
2018-03-28T10:47:50.301Z,20.97
2018-03-28T10:50:17.626Z,19.67
2018-03-28T10:52:44.790Z,20.37
2018-03-28T10:55:12.559Z,21.63
2018-03-28T10:57:39.614Z,22.77
2018-03-28T11:00:06.666Z,22.73
2018-03-28T11:02:33.857Z,24.33
2018-03-28T11:05:00.899Z,24.90
2018-03-28T11:07:27.904Z,24.77
2018-03-28T11:09:55.248Z,20.33
2018-03-28T11:12:22.361Z,24.03
2018-03-28T11:14:49.420Z,24.47
2018-03-28T11:17:16.434Z,23.00
2018-03-28T11:19:43.487Z,23.20
2018-03-28T11:22:10.498Z,22.83
2018-03-28T11:24:37.534Z,24.47
2018-03-28T11:27:04.557Z,23.13
2018-03-28T11:29:31.565Z,24.60
2018-03-28T11:31:58.590Z,26.30
2018-03-28T11:34:25.606Z,24.37
2018-03-28T11:36:52.958Z,22.63
2018-03-28T11:39:21.098Z,25.33
2018-03-28T11:41:48.910Z,22.97
2018-03-28T11:44:16.663Z,21.07
2018-03-28T11:46:43.681Z,21.50
2018-03-28T11:49:10.707Z,22.60
2018-03-28T11:51:37.697Z,22.77
2018-03-28T11:54:04.798Z,19.57
2018-03-28T11:56:32.138Z,21.70
2018-03-28T11:58:59.490Z,21.30
2018-03-28T12:01:26.598Z,20.57
2018-03-28T12:03:53.733Z,22.70
2018-03-28T12:06:20.865Z,22.03
2018-03-28T12:08:47.893Z,19.50
2018-03-28T12:11:14.921Z,20.03
2018-03-28T12:13:42.674Z,23.43
2018-03-28T12:16:09.914Z,21.20
2018-03-28T12:18:36.977Z,21.17
2018-03-28T12:21:04.742Z,19.43
2018-03-28T12:23:31.769Z,19.90
2018-03-28T12:25:58.817Z,22.07
2018-03-28T12:28:26.828Z,22.90
2018-03-28T12:30:53.960Z,24.53
2018-03-28T12:33:21.030Z,24.60
2018-03-28T12:35:48.058Z,23.97
2018-03-28T12:38:15.050Z,24.00
2018-03-28T12:40:42.242Z,22.17
2018-03-28T12:43:09.257Z,21.30
2018-03-28T12:45:36.270Z,22.30
2018-03-28T12:48:03.326Z,23.40
2018-03-28T12:50:30.477Z,21.17
2018-03-28T12:52:57.509Z,22.33
2018-03-28T12:55:24.720Z,20.80
2018-03-28T12:57:52.374Z,21.13
2018-03-28T13:00:19.361Z,18.53
2018-03-28T13:02:47.130Z,21.97
2018-03-28T13:05:14.180Z,22.40
2018-03-28T13:07:41.181Z,22.63
2018-03-28T13:10:08.215Z,22.70
2018-03-28T13:12:35.256Z,23.00
2018-03-28T13:15:02.283Z,24.00
2018-03-28T13:17:29.327Z,23.40
2018-03-28T13:19:57.088Z,21.30
2018-03-28T13:22:24.041Z,23.00
2018-03-28T13:24:51.068Z,24.03
2018-03-28T13:27:18.830Z,24.30
2018-03-28T13:29:46.579Z,23.60
2018-03-28T13:32:14.345Z,22.20
2018-03-28T13:34:42.117Z,25.10
2018-03-28T13:37:09.126Z,22.70
2018-03-28T13:39:36.256Z,24.03
2018-03-28T13:42:03.270Z,24.00
2018-03-28T13:44:30.319Z,23.07
2018-03-28T13:46:57.358Z,22.47
2018-03-28T13:49:24.365Z,22.90
2018-03-28T13:51:51.416Z,23.40
2018-03-28T13:54:18.440Z,24.00
2018-03-28T13:56:45.476Z,23.33
2018-03-28T13:59:12.542Z,21.57
2018-03-28T14:01:39.561Z,23.23
2018-03-28T14:04:06.582Z,20.37
2018-03-28T14:06:33.623Z,22.20
2018-03-28T14:09:01.374Z,21.90
2018-03-28T14:11:28.355Z,21.40
2018-03-28T14:13:55.401Z,22.60
2018-03-28T14:16:22.833Z,20.93
2018-03-28T14:18:50.398Z,23.03
2018-03-28T14:21:18.186Z,22.17
2018-03-28T14:23:45.949Z,21.13
2018-03-28T14:26:12.963Z,23.53
2018-03-28T14:28:40.750Z,23.20
2018-03-28T14:31:07.758Z,22.70
2018-03-28T14:33:34.791Z,21.90
2018-03-28T14:36:01.815Z,23.97
2018-03-28T14:38:28.817Z,23.37
2018-03-28T14:40:55.850Z,23.70
2018-03-28T14:43:22.885Z,24.70
2018-03-28T14:45:49.916Z,25.23
2018-03-28T14:48:16.954Z,24.33
2018-03-28T14:50:43.974Z,23.40
2018-03-28T14:53:11.709Z,26.77
2018-03-28T14:55:38.752Z,23.30
2018-03-28T14:58:05.820Z,22.87
2018-03-28T15:00:32.849Z,24.47
2018-03-28T15:02:59.885Z,22.03
2018-03-28T15:05:26.898Z,27.90
2018-03-28T15:07:53.945Z,22.80
2018-03-28T15:10:21.698Z,25.73
2018-03-28T15:12:48.737Z,24.10
2018-03-28T15:15:15.814Z,22.70
2018-03-28T15:17:42.877Z,26.10
2018-03-28T15:20:09.918Z,24.40
2018-03-28T15:22:36.993Z,23.73
2018-03-28T15:25:04.066Z,30.57
2018-03-28T15:27:31.044Z,26.40
2018-03-28T15:29:58.098Z,30.23
2018-03-28T15:32:25.140Z,25.13
2018-03-28T15:34:52.329Z,27.03
2018-03-28T15:37:19.325Z,24.57
2018-03-28T15:39:46.341Z,23.07
2018-03-28T15:42:14.142Z,24.83
2018-03-28T15:44:41.203Z,23.40
2018-03-28T15:47:08.213Z,26.00
2018-03-28T15:49:35.981Z,23.57
2018-03-28T15:52:03.003Z,26.80
2018-03-28T15:54:30.026Z,26.03
2018-03-28T15:56:57.246Z,24.90
2018-03-28T15:59:25.056Z,28.27
2018-03-28T16:01:52.129Z,27.63
2018-03-28T16:04:19.161Z,27.10
2018-03-28T16:06:46.196Z,24.20
2018-03-28T16:09:13.272Z,24.60
2018-03-28T16:11:41.491Z,24.80
2018-03-28T16:14:09.477Z,28.97
2018-03-28T16:16:36.476Z,24.00
2018-03-28T16:19:03.782Z,22.03
2018-03-28T16:21:31.022Z,24.87
2018-03-28T16:23:58.108Z,22.60
2018-03-28T16:26:26.205Z,24.80
2018-03-28T16:28:53.577Z,24.10
2018-03-28T16:31:20.797Z,22.70
2018-03-28T16:33:47.849Z,25.43
2018-03-28T16:36:15.087Z,24.40
2018-03-28T16:38:42.246Z,23.43
2018-03-28T16:41:10.075Z,26.30
2018-03-28T16:43:37.199Z,25.47
2018-03-28T16:46:04.429Z,23.47
2018-03-28T16:48:31.556Z,26.43
2018-03-28T16:50:59.328Z,23.07
2018-03-28T16:53:26.620Z,27.30
2018-03-28T16:55:53.693Z,25.90
2018-03-28T16:58:21.465Z,24.50
2018-03-28T17:00:48.622Z,28.20
2018-03-28T17:03:15.895Z,25.07
2018-03-28T17:05:43.040Z,23.23
2018-03-28T17:08:10.125Z,27.13
2018-03-28T17:10:37.276Z,24.83
2018-03-28T17:13:04.372Z,26.73
2018-03-28T17:15:31.499Z,23.80
2018-03-28T17:17:58.556Z,24.00
2018-03-28T17:20:26.598Z,22.27
2018-03-28T17:22:53.626Z,24.50
2018-03-28T17:25:21.389Z,25.53
2018-03-28T17:27:48.445Z,23.97
2018-03-28T17:30:15.465Z,24.23
2018-03-28T17:32:43.404Z,29.13
2018-03-28T17:35:11.212Z,26.40
2018-03-28T17:37:38.714Z,29.47
2018-03-28T17:40:05.778Z,24.43
2018-03-28T17:42:33.562Z,30.63
2018-03-28T17:45:01.321Z,32.87
2018-03-28T17:47:29.149Z,35.03
2018-03-28T17:49:56.152Z,34.77
2018-03-28T17:52:23.168Z,39.70
2018-03-28T17:54:50.221Z,36.50
2018-03-28T17:57:18.005Z,38.33
2018-03-28T17:59:45.982Z,32.27
2018-03-28T18:02:13.237Z,31.97
2018-03-28T18:04:41.027Z,31.03
2018-03-28T18:07:08.022Z,30.80
2018-03-28T18:09:35.288Z,38.70
2018-03-28T18:12:02.390Z,29.80
2018-03-28T18:14:29.469Z,29.30
2018-03-28T18:16:57.225Z,28.97
2018-03-28T18:19:24.243Z,28.47
2018-03-28T18:21:51.514Z,34.00
2018-03-28T18:24:18.866Z,28.63
2018-03-28T18:26:45.971Z,33.97
2018-03-28T18:29:13.110Z,33.70
2018-03-28T18:31:40.165Z,38.30
2018-03-28T18:34:07.183Z,32.77
2018-03-28T18:36:34.979Z,36.83
2018-03-28T18:39:02.074Z,32.17
2018-03-28T18:41:29.318Z,32.83
2018-03-28T18:43:56.403Z,40.30
2018-03-28T18:46:23.618Z,37.50
2018-03-28T18:48:50.793Z,42.63
2018-03-28T18:51:18.021Z,46.37
2018-03-28T18:53:45.361Z,45.27
2018-03-28T18:56:12.358Z,40.13
2018-03-28T18:58:39.365Z,38.80
2018-03-28T19:01:06.591Z,43.73
2018-03-28T19:03:34.337Z,38.27
2018-03-28T19:06:02.378Z,46.97
2018-03-28T19:08:29.409Z,50.73
2018-03-28T19:10:56.443Z,40.37
2018-03-28T19:13:23.509Z,46.57
2018-03-28T19:15:50.786Z,42.63
2018-03-28T19:18:17.838Z,47.17
2018-03-28T19:20:45.645Z,48.10
2018-03-28T19:23:12.646Z,39.13
2018-03-28T19:25:39.654Z,44.83
2018-03-28T19:28:07.399Z,39.20
2018-03-28T19:30:34.425Z,43.90
2018-03-28T19:33:02.206Z,39.73
2018-03-28T19:35:29.243Z,41.20
2018-03-28T19:37:57.126Z,40.97
2018-03-28T19:40:24.545Z,41.07
2018-03-28T19:42:51.641Z,39.73
2018-03-28T19:45:18.697Z,42.20
2018-03-28T19:47:45.735Z,42.17
2018-03-28T19:50:12.773Z,43.40
2018-03-28T19:52:39.810Z,38.80
2018-03-28T19:55:09.322Z,35.90
2018-03-28T19:57:37.354Z,33.67
2018-03-28T20:00:04.846Z,36.00
2018-03-28T20:02:31.955Z,35.60
2018-03-28T20:04:59.034Z,31.17
2018-03-28T20:07:27.094Z,30.70
2018-03-28T20:09:54.207Z,37.63
2018-03-28T20:12:21.275Z,33.03
2018-03-28T20:14:48.353Z,34.93
2018-03-28T20:17:16.137Z,34.63
2018-03-28T20:19:43.867Z,32.70
2018-03-28T20:22:11.523Z,33.87
2018-03-28T20:24:39.608Z,36.30
2018-03-28T20:27:06.637Z,40.10
2018-03-28T20:29:33.797Z,38.70
2018-03-28T20:32:00.964Z,33.53
2018-03-28T20:34:28.149Z,42.17
2018-03-28T20:36:55.190Z,38.53
2018-03-28T20:39:22.241Z,36.43
2018-03-28T20:41:49.469Z,37.40
2018-03-28T20:44:17.301Z,36.17
2018-03-28T20:46:44.315Z,39.97
2018-03-28T20:49:11.332Z,35.47
2018-03-28T20:51:38.794Z,40.53
2018-03-28T20:54:05.998Z,42.40
2018-03-28T20:56:33.013Z,44.50
2018-03-28T20:59:00.051Z,46.80
2018-03-28T21:01:27.141Z,41.83
2018-03-28T21:03:54.257Z,41.27
2018-03-28T21:06:21.334Z,44.70
2018-03-28T21:08:48.333Z,45.53
2018-03-28T21:11:15.426Z,46.63
2018-03-28T21:13:42.913Z,48.97
2018-03-28T21:16:10.233Z,55.03
2018-03-28T21:18:37.273Z,41.67
2018-03-28T21:21:04.265Z,42.63
2018-03-28T21:23:32.018Z,47.13
2018-03-28T21:25:59.047Z,47.20
2018-03-28T21:28:26.061Z,45.33
2018-03-28T21:30:53.094Z,39.80
2018-03-28T21:33:20.133Z,46.33
2018-03-28T21:35:47.150Z,47.67
2018-03-28T21:38:14.148Z,48.70
2018-03-28T21:40:41.182Z,43.40
2018-03-28T21:43:08.186Z,41.40
2018-03-28T21:45:35.946Z,36.30
2018-03-28T21:48:03.063Z,37.80
2018-03-28T21:50:30.093Z,38.63
2018-03-28T21:52:57.121Z,40.50
2018-03-28T21:55:24.187Z,38.97
2018-03-28T21:57:51.184Z,41.77
2018-03-28T22:00:18.991Z,37.97
2018-03-28T22:02:46.014Z,39.50
2018-03-28T22:05:13.777Z,40.53
2018-03-28T22:07:41.550Z,38.07
2018-03-28T22:10:08.865Z,39.10
2018-03-28T22:12:35.930Z,39.10
2018-03-28T22:15:03.023Z,40.47
2018-03-28T22:17:30.069Z,42.97
2018-03-28T22:19:57.073Z,39.73
2018-03-28T22:22:24.114Z,39.07
2018-03-28T22:24:51.345Z,37.40
2018-03-28T22:27:18.513Z,34.00
2018-03-28T22:29:45.541Z,39.57
2018-03-28T22:32:12.605Z,41.07
2018-03-28T22:34:40.402Z,43.17
2018-03-28T22:37:08.149Z,39.13
2018-03-28T22:39:35.177Z,42.83
2018-03-28T22:42:02.222Z,41.80
2018-03-28T22:44:29.234Z,39.30
2018-03-28T22:46:56.245Z,45.77
2018-03-28T22:49:24.014Z,38.90
2018-03-28T22:51:51.795Z,42.90
2018-03-28T22:54:18.867Z,41.77
2018-03-28T22:56:45.893Z,41.97
2018-03-28T22:59:13.625Z,43.33
2018-03-28T23:01:40.647Z,40.70
2018-03-28T23:04:07.682Z,40.60
2018-03-28T23:06:34.661Z,44.83
2018-03-28T23:09:01.720Z,42.70
2018-03-28T23:11:29.470Z,39.33
2018-03-28T23:13:57.240Z,38.33
2018-03-28T23:16:24.287Z,41.93
2018-03-28T23:18:51.282Z,35.00
2018-03-28T23:21:18.284Z,38.97
2018-03-28T23:23:46.063Z,36.07
2018-03-28T23:26:13.065Z,36.60
2018-03-28T23:28:40.069Z,37.40
2018-03-28T23:31:07.081Z,38.47
2018-03-28T23:33:34.108Z,38.67
2018-03-28T23:36:01.140Z,39.07
2018-03-28T23:38:28.124Z,42.30
2018-03-28T23:40:55.144Z,42.23
2018-03-28T23:43:22.183Z,42.30
2018-03-28T23:45:49.221Z,37.50
2018-03-28T23:48:16.232Z,41.27
2018-03-28T23:50:44.020Z,34.87
2018-03-28T23:53:11.041Z,43.10
2018-03-28T23:55:38.052Z,34.20
2018-03-28T23:58:05.085Z,35.57
